Time;durP1;ratioP1;P1;durP2;ratioP2;P2;SDS_P1;SDS_P2;PMS_P1;PMS_P2;Temp;Humidity;BMP_temperature;BMP_pressure;BME280_temperature;BME280_humidity;BME280_pressure;Samples;Min_cycle;Max_cycle;Signal;HPM_P1;HPM_P2
2022/12/20 00:01:25;;;;;;;17.95;13.10;;;;;;;1.89;79.02;101385.86;1657413;84;21778;-91
2022/12/20 00:03:51;;;;;;;19.12;12.88;;;;;;;1.93;79.06;101386.20;1621881;86;21568;-91
2022/12/20 00:06:17;;;;;;;17.50;12.53;;;;;;;1.98;79.06;101380.02;1656686;84;21024;-91
2022/12/20 00:08:44;;;;;;;17.35;12.13;;;;;;;1.99;79.07;101377.01;1644392;85;21064;-90
2022/12/20 00:11:11;;;;;;;15.60;11.20;;;;;;;2.01;79.09;101383.20;1648115;85;21073;-91
2022/12/20 00:13:39;;;;;;;15.90;10.93;;;;;;;2.02;79.17;101382.42;1648673;85;22376;-91
2022/12/20 00:16:14;;;;;;;18.77;11.80;;;;;;;2.05;79.24;101387.84;1651025;84;20935;-91
2022/12/20 00:18:41;;;;;;;16.62;11.80;;;;;;;2.07;79.24;101383.25;1657151;84;21029;-90
2022/12/20 00:21:09;;;;;;;15.38;11.55;;;;;;;2.09;79.23;101392.05;1647059;86;21494;-90
2022/12/20 00:23:36;;;;;;;15.15;11.22;;;;;;;2.11;79.28;101393.05;1658389;84;21023;-90
2022/12/20 00:26:16;;;;;;;14.25;10.65;;;;;;;2.12;79.30;101391.34;1626720;86;22931;-91
2022/12/20 00:28:44;;;;;;;18.23;11.40;;;;;;;2.14;79.39;101382.89;1648539;84;22241;-90
2022/12/20 00:31:16;;;;;;;18.05;11.73;;;;;;;2.19;79.41;101385.78;1648781;84;20996;-90
2022/12/20 00:33:45;;;;;;;17.40;11.65;;;;;;;2.20;79.41;101372.42;1655082;84;20994;-91
2022/12/20 00:36:12;;;;;;;14.73;10.68;;;;;;;2.24;79.47;101375.73;1637617;84;21004;-90
2022/12/20 00:38:39;;;;;;;15.28;10.85;;;;;;;2.28;79.50;101365.64;1645461;84;22086;-90
2022/12/20 00:41:12;;;;;;;16.85;10.60;;;;;;;2.32;79.50;101357.66;1645803;85;21004;-90
2022/12/20 00:43:38;;;;;;;16.02;10.65;;;;;;;2.36;79.48;101364.86;1644414;84;21496;-90
2022/12/20 00:46:08;;;;;;;15.68;9.88;;;;;;;2.39;79.50;101348.19;1644964;84;21085;-91
2022/12/20 00:48:34;;;;;;;13.58;10.20;;;;;;;2.43;79.49;101357.98;1643806;85;21029;-92
2022/12/20 00:51:06;;;;;;;13.22;9.88;;;;;;;2.46;79.51;101345.20;1652640;84;21687;-91
2022/12/20 00:53:33;;;;;;;13.38;10.72;;;;;;;2.53;79.50;101342.60;1646238;85;21955;-90
2022/12/20 00:56:00;;;;;;;14.13;11.00;;;;;;;2.55;79.52;101343.60;1652462;84;21070;-91
2022/12/20 00:58:27;;;;;;;13.45;9.93;;;;;;;2.55;79.44;101343.60;1651982;84;21475;-90
2022/12/20 01:00:53;;;;;;;13.48;9.35;;;;;;;2.56;79.51;101337.63;1646596;84;21105;-91
2022/12/20 01:03:20;;;;;;;13.78;10.08;;;;;;;2.57;79.47;101343.30;1647736;85;21812;-91
2022/12/20 01:05:59;;;;;;;16.40;8.95;;;;;;;2.58;79.56;101343.81;1645116;84;21804;-91
2022/12/20 01:08:27;;;;;;;14.80;9.25;;;;;;;2.59;79.50;101339.52;1657277;85;21088;-92
2022/12/20 01:11:06;;;;;;;11.75;9.18;;;;;;;2.60;79.58;101333.13;1649901;84;21029;-91
2022/12/20 01:13:35;;;;;;;12.68;8.90;;;;;;;2.60;79.58;101337.42;1646917;84;21008;-91
2022/12/20 01:16:18;;;;;;;12.60;8.95;;;;;;;2.63;79.72;101334.64;1653431;84;21803;-91
2022/12/20 01:18:45;;;;;;;12.88;9.25;;;;;;;2.64;79.65;101327.73;1645210;85;21020;-91
2022/12/20 01:21:13;;;;;;;15.15;9.35;;;;;;;2.65;79.69;101330.84;1648441;85;21015;-93
2022/12/20 01:23:40;;;;;;;11.57;8.50;;;;;;;2.65;79.69;101330.84;1644429;85;21001;-91
2022/12/20 01:26:08;;;;;;;10.50;8.58;;;;;;;2.67;79.75;101321.03;1648762;85;20944;-92
2022/12/20 01:28:36;;;;;;;11.25;8.38;;;;;;;2.71;79.80;101306.55;1651463;85;21733;-92
2022/12/20 01:31:13;;;;;;;11.15;7.97;;;;;;;2.73;79.79;101304.94;1648596;86;21069;-91
2022/12/20 01:33:39;;;;;;;9.40;7.42;;;;;;;2.76;79.82;101301.63;1643481;84;21001;-92
2022/12/20 01:36:10;;;;;;;9.73;7.12;;;;;;;2.77;79.80;101308.65;1648540;84;21020;-92
2022/12/20 01:38:37;;;;;;;10.78;7.53;;;;;;;2.79;79.81;101307.05;1650618;85;21060;-91
2022/12/20 01:41:03;;;;;;;10.38;6.95;;;;;;;2.80;79.86;101304.55;1649209;85;21781;-92
2022/12/20 01:44:00;;;;;;;9.83;6.65;;;;;;;2.81;79.87;101301.13;1649037;85;20992;-91
2022/12/20 01:46:29;;;;;;;8.75;6.97;;;;;;;2.84;79.91;101302.64;1649799;86;21870;-92
2022/12/20 01:49:13;;;;;;;10.08;7.22;;;;;;;2.84;79.89;101296.55;1645176;84;21051;-91
2022/12/20 01:51:49;;;;;;;8.78;6.78;;;;;;;2.88;80.00;101288.14;1647012;84;21036;-92
2022/12/20 01:54:23;;;;;;;11.15;7.60;;;;;;;2.91;80.05;101281.44;1644250;85;21740;-92
2022/12/20 01:56:57;;;;;;;11.03;8.20;;;;;;;2.93;80.06;101272.45;1627260;85;21092;-92
2022/12/20 01:59:24;;;;;;;11.43;8.70;;;;;;;2.99;80.14;101270.23;1590848;88;21040;-92
2022/12/20 02:01:51;;;;;;;14.10;10.72;;;;;;;3.04;80.24;101259.72;1582250;87;21921;-91
2022/12/20 02:04:17;;;;;;;13.98;10.38;;;;;;;3.13;80.36;101261.09;1652123;84;21092;-92
2022/12/20 02:06:44;;;;;;;14.95;12.10;;;;;;;3.19;80.29;101248.47;1656497;84;23055;-91
2022/12/20 02:09:11;;;;;;;15.25;11.85;;;;;;;3.24;80.38;101244.05;1656033;84;21014;-91
2022/12/20 02:11:58;;;;;;;16.67;13.03;;;;;;;3.31;80.38;101238.84;1665427;83;21886;-91
2022/12/20 02:15:03;;;;;;;18.55;13.13;;;;;;;3.37;80.35;101241.81;1652004;84;21156;-91
2022/12/20 02:17:44;;;;;;;19.40;14.40;;;;;;;3.43;80.28;101251.70;1649369;84;21098;-91
2022/12/20 02:20:49;;;;;;;21.80;15.28;;;;;;;3.44;80.14;101268.72;1650676;84;21917;-91
2022/12/20 02:23:44;;;;;;;21.23;15.05;;;;;;;3.46;80.11;101273.61;1666460;84;21042;-92
2022/12/20 02:26:33;;;;;;;22.22;15.75;;;;;;;3.48;80.12;101279.80;1648466;84;20994;-91
2022/12/20 02:29:29;;;;;;;20.50;15.30;;;;;;;3.53;80.13;101267.09;1663316;84;21098;-91
2022/12/20 02:32:14;;;;;;;23.22;16.95;;;;;;;3.53;80.04;101271.37;1656858;84;21057;-91
2022/12/20 02:34:41;;;;;;;23.90;18.40;;;;;;;3.55;80.10;101275.89;1660117;84;22900;-91
2022/12/20 02:37:09;;;;;;;24.92;17.85;;;;;;;3.54;80.06;101279.28;1630096;85;20999;-93
2022/12/20 02:39:36;;;;;;;30.62;20.50;;;;;;;3.53;80.01;101278.80;1594963;86;21036;-91
2022/12/20 02:42:10;;;;;;;25.48;20.65;;;;;;;3.52;80.07;101287.41;1554783;87;21203;-91
2022/12/20 02:47:39;;;;;;;40.88;28.32;;;;;;;3.51;80.10;101285.63;1662185;84;21860;-92
2022/12/20 02:50:07;;;;;;;68.75;44.20;;;;;;;3.49;80.10;101289.42;1659135;84;21054;-92
2022/12/20 02:52:34;;;;;;;103.32;59.53;;;;;;;3.49;80.16;101298.91;1659218;84;21133;-91
2022/12/20 02:55:01;;;;;;;106.40;64.47;;;;;;;3.50;80.19;101291.20;1666892;84;21052;-91
2022/12/20 02:57:59;;;;;;;95.95;58.65;;;;;;;3.49;80.21;101282.00;1650688;84;21013;-92
2022/12/20 03:00:26;;;;;;;85.57;51.63;;;;;;;3.53;80.23;101281.78;1610193;86;21755;-91
2022/12/20 03:05:44;;;;;;;158.05;92.17;;;;;;;3.54;80.27;101262.36;1663555;84;20999;-91
2022/12/20 03:08:11;;;;;;;;;;;;;;;3.54;80.26;101253.25;1672299;83;21541;-92
2022/12/20 03:10:38;;;;;;;85.70;50.00;;;;;;;3.57;80.34;101257.77;1654025;83;20200;-92
2022/12/20 03:13:04;;;;;;;42.17;30.70;;;;;;;3.59;80.35;101258.34;1664334;83;21762;-92
2022/12/20 03:15:31;;;;;;;35.60;25.17;;;;;;;3.59;80.31;101253.14;1664765;83;21439;-92
2022/12/20 03:17:58;;;;;;;34.30;24.80;;;;;;;3.59;80.29;101250.54;1667988;83;21059;-93
2022/12/20 03:20:24;;;;;;;36.75;26.23;;;;;;;3.58;80.31;101248.73;1664649;83;21065;-92
2022/12/20 03:22:51;;;;;;;38.30;26.93;;;;;;;3.61;80.35;101250.64;1676272;83;21874;-92
2022/12/20 03:25:18;;;;;;;38.50;27.17;;;;;;;3.61;80.36;101246.33;1671418;83;21741;-91
2022/12/20 03:27:44;;;;;;;34.92;24.57;;;;;;;3.64;80.41;101253.03;1656588;83;21847;-91
2022/12/20 03:30:13;;;;;;;36.80;26.65;;;;;;;3.67;80.37;101260.11;1670607;83;21031;-92
2022/12/20 03:32:40;;;;;;;34.67;23.87;;;;;;;3.69;80.34;101266.31;1651425;84;21087;-91
2022/12/20 03:35:07;;;;;;;33.63;24.52;;;;;;;3.73;80.36;101270.00;1663503;83;21052;-92
2022/12/20 03:37:34;;;;;;;33.78;24.23;;;;;;;3.76;80.39;101275.00;1657420;83;21762;-92
2022/12/20 03:40:01;;;;;;;34.67;23.85;;;;;;;3.78;80.29;101275.09;1659464;83;21047;-91
2022/12/20 03:42:28;;;;;;;34.23;24.50;;;;;;;3.78;80.28;101277.28;1666326;83;20967;-92
2022/12/20 03:44:54;;;;;;;33.70;24.23;;;;;;;3.79;80.23;101275.57;1662770;83;21038;-91
2022/12/20 03:47:21;;;;;;;39.60;25.72;;;;;;;3.80;80.25;101265.67;1656509;83;21792;-92
2022/12/20 03:49:48;;;;;;;36.93;25.68;;;;;;;3.83;80.30;101272.34;1623771;86;21691;-92
2022/12/20 03:52:15;;;;;;;34.85;24.35;;;;;;;3.83;80.20;101265.83;1673610;83;21044;-92
2022/12/20 03:54:41;;;;;;;37.42;25.00;;;;;;;3.83;80.24;101273.27;1660450;83;20982;-91
2022/12/20 03:57:08;;;;;;;36.93;24.55;;;;;;;3.84;80.21;101281.55;1660379;83;21237;-91
2022/12/20 03:59:35;;;;;;;41.53;27.27;;;;;;;3.81;80.17;101279.16;1653844;83;21039;-91
2022/12/20 04:02:02;;;;;;;41.08;26.62;;;;;;;3.80;80.22;101286.09;1679032;83;21795;-91
2022/12/20 04:04:29;;;;;;;37.65;25.52;;;;;;;3.79;80.17;101269.06;1655674;83;21865;-91
2022/12/20 04:06:55;;;;;;;38.33;26.15;;;;;;;3.78;80.25;101254.27;1666618;83;21072;-92
2022/12/20 04:09:22;;;;;;;38.40;26.23;;;;;;;3.78;80.21;101254.27;1681904;83;21062;-91
2022/12/20 04:11:49;;;;;;;36.90;25.70;;;;;;;3.75;80.22;101254.95;1657782;83;21059;-90
2022/12/20 04:14:15;;;;;;;42.73;29.37;;;;;;;3.75;80.22;101264.48;1676684;83;21742;-91
2022/12/20 04:16:42;;;;;;;40.28;27.62;;;;;;;3.74;80.28;101253.59;1683787;83;21021;-92
2022/12/20 04:19:09;;;;;;;43.25;27.90;;;;;;;3.70;80.29;101244.28;1667250;83;21469;-92
2022/12/20 04:21:36;;;;;;;45.83;28.98;;;;;;;3.70;80.33;101231.27;1658881;83;21047;-92
2022/12/20 04:24:03;;;;;;;37.63;26.55;;;;;;;3.67;80.29;101231.06;1673166;83;21954;-92
2022/12/20 04:26:30;;;;;;;37.78;25.77;;;;;;;3.65;80.34;101227.47;1673768;83;21687;-91
2022/12/20 04:28:57;;;;;;;36.15;26.27;;;;;;;3.65;80.41;101222.68;1669326;83;20980;-92
2022/12/20 04:31:24;;;;;;;37.35;26.33;;;;;;;3.65;80.46;101223.98;1664394;83;21032;-92
2022/12/20 04:33:50;;;;;;;38.35;26.77;;;;;;;3.67;80.54;101213.25;1670599;83;21065;-91
2022/12/20 04:36:17;;;;;;;37.83;25.82;;;;;;;3.70;80.57;101215.64;1664460;83;21123;-92
2022/12/20 04:38:44;;;;;;;39.25;26.25;;;;;;;3.68;80.50;101220.27;1679556;83;22924;-91
2022/12/20 04:41:20;;;;;;;38.95;27.15;;;;;;;3.68;80.55;101230.27;1671519;83;21020;-92
2022/12/20 04:43:39;;;;;;;39.65;26.70;;;;;;;3.69;80.61;101233.36;1632993;85;21788;-91
2022/12/20 04:46:06;;;;;;;37.73;25.40;;;;;;;3.71;80.61;101224.34;1643903;85;21011;-92
2022/12/20 04:48:32;;;;;;;39.75;26.90;;;;;;;3.71;80.60;101220.44;1644767;85;21022;-93
2022/12/20 04:50:59;;;;;;;41.90;25.23;;;;;;;3.71;80.63;101215.23;1647883;85;21934;-93
2022/12/20 04:56:10;;;;;;;39.00;25.55;;;;;;;3.76;80.65;101213.80;1659041;85;21092;-90
2022/12/20 04:58:37;;;;;;;34.98;24.92;;;;;;;3.77;80.65;101212.09;1644626;85;20998;-91
2022/12/20 05:01:04;;;;;;;41.40;26.12;;;;;;;3.78;80.64;101211.30;1672303;83;21030;-89
2022/12/20 05:03:31;;;;;;;38.30;25.15;;;;;;;3.80;80.67;101212.29;1668884;83;21733;-90
2022/12/20 05:05:57;;;;;;;36.90;24.05;;;;;;;3.83;80.68;101217.66;1668336;83;21044;-90
2022/12/20 05:08:24;;;;;;;38.78;25.05;;;;;;;3.84;80.68;101210.36;1665097;83;21064;-90
2022/12/20 05:10:51;;;;;;;43.78;28.60;;;;;;;3.84;80.65;101211.24;1668711;83;21456;-91
2022/12/20 05:13:17;;;;;;;53.15;35.00;;;;;;;3.84;80.67;101206.45;1651917;83;21039;-93
2022/12/20 05:15:44;;;;;;;45.00;29.77;;;;;;;3.85;80.70;101197.43;1620698;86;21802;-94
2022/12/20 05:18:11;;;;;;;94.80;53.00;;;;;;;3.88;80.70;101192.80;1620922;86;21018;-93
2022/12/20 05:20:38;;;;;;;71.30;41.85;;;;;;;3.89;80.72;101185.49;1619498;86;21105;-90
2022/12/20 05:28:34;;;;;;;56.48;35.52;;;;;;;3.91;80.65;101206.42;1626571;86;21590;-91
2022/12/20 05:31:01;;;;;;;66.82;42.78;;;;;;;3.89;80.68;101217.63;1609108;86;21919;-89
2022/12/20 05:33:28;;;;;;;62.60;40.48;;;;;;;3.88;80.74;101215.82;1623756;86;21025;-90
2022/12/20 05:35:55;;;;;;;66.92;43.33;;;;;;;3.90;80.75;101221.13;1640772;86;21069;-91
2022/12/20 05:38:22;;;;;;;45.67;32.10;;;;;;;3.90;80.69;101217.22;1615386;86;21498;-89
2022/12/20 05:40:49;;;;;;;46.77;31.33;;;;;;;3.89;80.76;101222.84;1617282;86;21804;-90
2022/12/20 05:43:16;;;;;;;44.53;29.00;;;;;;;3.91;80.73;101237.67;1613761;86;21558;-91
2022/12/20 05:45:47;;;;;;;47.70;32.67;;;;;;;3.92;80.71;101245.97;1616768;86;21026;-84
2022/12/20 05:48:15;;;;;;;42.17;30.02;;;;;;;3.93;80.75;101249.97;1622762;86;21041;-84
2022/12/20 05:50:43;;;;;;;49.30;31.20;;;;;;;3.96;80.76;101254.45;1610878;86;21025;-84
2022/12/20 05:53:11;;;;;;;42.43;29.77;;;;;;;3.96;80.68;101252.77;1620820;86;22953;-83
2022/12/20 05:55:40;;;;;;;46.28;30.97;;;;;;;3.95;80.65;101243.14;1613181;86;21073;-84
2022/12/20 05:58:07;;;;;;;49.18;34.03;;;;;;;3.95;80.65;101240.54;1623746;86;21105;-84
2022/12/20 06:00:33;;;;;;;50.50;32.42;;;;;;;3.94;80.62;101241.36;1620183;86;21090;-84
2022/12/20 06:03:00;;;;;;;46.48;33.65;;;;;;;3.93;80.61;101234.34;1625524;86;21050;-84
2022/12/20 06:05:27;;;;;;;51.85;32.85;;;;;;;3.92;80.61;101238.16;1619826;86;22982;-89
2022/12/20 06:07:54;;;;;;;62.05;38.55;;;;;;;3.89;80.59;101240.19;1616169;86;21028;-89
2022/12/20 06:10:20;;;;;;;71.20;42.33;;;;;;;3.88;80.67;101247.08;1639303;85;21020;-89
2022/12/20 06:12:47;;;;;;;78.47;44.90;;;;;;;3.88;80.71;101253.58;1659625;84;21841;-89
2022/12/20 06:15:14;;;;;;;88.22;49.67;;;;;;;3.88;80.68;101260.09;1633874;85;21545;-89
2022/12/20 06:17:41;;;;;;;75.92;43.83;;;;;;;3.87;80.70;101262.64;1621306;86;21708;-89
2022/12/20 06:20:11;;;;;;;74.15;43.63;;;;;;;3.88;80.73;101260.09;1618116;86;21098;-89
2022/12/20 06:22:37;;;;;;;51.08;32.58;;;;;;;3.90;80.80;101252.38;1620014;86;21084;-90
2022/12/20 06:25:08;;;;;;;70.97;43.17;;;;;;;3.92;80.77;101242.06;1610248;86;21064;-89
2022/12/20 06:27:35;;;;;;;56.55;35.15;;;;;;;3.93;80.77;101239.55;1615017;86;21851;-89
2022/12/20 06:30:04;;;;;;;49.53;30.72;;;;;;;3.94;80.82;101248.25;1633223;85;22924;-89
2022/12/20 06:32:31;;;;;;;48.20;32.17;;;;;;;3.96;80.80;101242.73;1602475;88;21079;-89
2022/12/20 06:34:58;;;;;;;50.03;33.38;;;;;;;3.95;80.76;101237.94;1626721;86;21076;-89
2022/12/20 06:37:24;;;;;;;47.95;31.07;;;;;;;3.96;80.71;101236.22;1638529;85;21074;-88
2022/12/20 06:39:51;;;;;;;48.90;31.42;;;;;;;3.94;80.71;101236.16;1663206;84;21003;-88
2022/12/20 06:42:18;;;;;;;51.85;29.65;;;;;;;3.95;80.76;101241.84;1666817;84;21784;-87
2022/12/20 06:44:45;;;;;;;49.55;32.80;;;;;;;3.94;80.66;101245.27;1662210;84;21015;-86
2022/12/20 06:47:12;;;;;;;52.55;34.00;;;;;;;3.94;80.75;101251.78;1626846;85;21016;-87
2022/12/20 06:49:39;;;;;;;47.53;31.62;;;;;;;3.94;80.75;101250.86;1622918;85;21478;-89
2022/12/20 06:52:05;;;;;;;51.05;30.90;;;;;;;3.92;80.75;101253.37;1623466;86;21075;-87
2022/12/20 06:54:32;;;;;;;55.00;33.85;;;;;;;3.93;80.78;101250.38;1629404;86;22610;-87
2022/12/20 06:56:59;;;;;;;50.98;30.35;;;;;;;3.92;80.77;101248.57;1618498;86;20975;-89
2022/12/20 06:59:25;;;;;;;48.05;30.02;;;;;;;3.90;80.82;101252.38;1633164;86;21048;-87
2022/12/20 07:01:52;;;;;;;49.33;30.62;;;;;;;3.90;80.84;101252.38;1636985;86;21067;-87
2022/12/20 07:04:22;;;;;;;48.23;29.55;;;;;;;3.91;80.85;101254.61;1635060;85;21458;-89
2022/12/20 07:06:47;;;;;;;47.60;29.80;;;;;;;3.89;80.84;101259.72;1637691;85;21741;-89
2022/12/20 07:09:14;;;;;;;47.15;28.90;;;;;;;3.89;80.89;101254.51;1621484;85;21019;-86
2022/12/20 07:11:42;;;;;;;48.00;29.70;;;;;;;3.90;80.94;101258.89;1622068;87;21612;-87
2022/12/20 07:14:08;;;;;;;49.05;30.20;;;;;;;3.89;80.89;101264.51;1609516;87;21118;-87
2022/12/20 07:16:42;;;;;;;51.02;30.10;;;;;;;3.90;80.91;101261.49;1610416;87;21595;-87
2022/12/20 07:19:15;;;;;;;51.23;30.00;;;;;;;3.92;81.03;101258.58;1608520;87;21720;-89
2022/12/20 07:21:54;;;;;;;48.15;30.17;;;;;;;3.96;81.00;101258.36;1615822;87;21076;-89
2022/12/20 07:24:24;;;;;;;45.88;29.80;;;;;;;3.96;80.99;101263.56;1614939;87;21016;-89
2022/12/20 07:26:50;;;;;;;45.52;29.55;;;;;;;3.99;81.05;101268.56;1611988;87;21075;-87
2022/12/20 07:29:17;;;;;;;48.75;29.57;;;;;;;4.03;81.00;101267.04;1613895;86;21088;-87
2022/12/20 07:31:44;;;;;;;46.35;27.93;;;;;;;4.03;81.04;101265.33;1611241;87;21783;-87
2022/12/20 07:34:11;;;;;;;48.63;28.92;;;;;;;4.08;81.05;101274.73;1610412;87;21956;-88
2022/12/20 07:36:37;;;;;;;48.98;28.38;;;;;;;4.07;80.94;101271.23;1613996;87;21079;-88
2022/12/20 07:39:04;;;;;;;47.60;28.80;;;;;;;4.09;80.96;101276.13;1611480;87;21036;-88
2022/12/20 07:42:21;;;;;;;44.00;26.73;;;;;;;4.10;80.96;101279.62;1611591;87;21072;-88
2022/12/20 07:44:24;;;;;;;47.40;27.32;;;;;;;4.12;80.96;101278.42;1599251;87;21073;-87
2022/12/20 07:46:52;;;;;;;46.13;29.05;;;;;;;4.17;80.95;101286.11;1620943;86;21538;-88
2022/12/20 07:49:23;;;;;;;47.35;29.27;;;;;;;4.19;80.89;101279.28;1613490;87;21055;-88
2022/12/20 07:51:54;;;;;;;45.73;27.45;;;;;;;4.19;80.83;101276.68;1589900;87;21036;-88
2022/12/20 07:54:29;;;;;;;51.95;29.40;;;;;;;4.21;80.85;101285.48;1614392;87;21043;-88
2022/12/20 07:56:59;;;;;;;46.58;28.73;;;;;;;4.24;80.81;101281.35;1616249;87;21771;-88
2022/12/20 07:59:30;;;;;;;43.80;27.62;;;;;;;4.25;80.71;101279.64;1615638;87;21964;-88
2022/12/20 08:01:59;;;;;;;44.98;28.40;;;;;;;4.27;80.69;101275.41;1612632;87;21055;-88
2022/12/20 08:04:26;;;;;;;47.38;29.82;;;;;;;4.27;80.65;101265.88;1610004;87;21443;-88
2022/12/20 08:06:54;;;;;;;39.90;26.75;;;;;;;4.30;80.60;101261.27;1615412;87;21095;-87
2022/12/20 08:09:21;;;;;;;42.50;27.17;;;;;;;4.33;80.60;101256.22;1600270;86;21752;-88
2022/12/20 08:11:48;;;;;;;40.63;26.07;;;;;;;4.37;80.62;101264.70;1588242;87;21062;-87
2022/12/20 08:14:15;;;;;;;41.08;26.90;;;;;;;4.41;80.54;101261.87;1633399;85;22369;-88
2022/12/20 08:16:42;;;;;;;41.15;26.35;;;;;;;4.43;80.47;101265.46;1640051;85;22511;-87
2022/12/20 08:19:10;;;;;;;45.95;29.02;;;;;;;4.42;80.37;101271.09;1637630;85;21011;-89
2022/12/20 08:21:36;;;;;;;45.60;27.67;;;;;;;4.43;80.31;101272.90;1613585;85;22043;-88
2022/12/20 08:24:03;;;;;;;52.13;32.00;;;;;;;4.43;80.30;101270.30;1623280;85;21024;-88
2022/12/20 08:26:30;;;;;;;55.83;35.30;;;;;;;4.44;80.31;101264.25;1604182;86;21039;-89
2022/12/20 08:28:57;;;;;;;70.03;39.83;;;;;;;4.44;80.23;101269.47;1569729;89;21956;-88
2022/12/20 08:31:24;;;;;;;55.20;33.10;;;;;;;4.46;80.21;101265.23;1607803;86;21069;-88
2022/12/20 08:33:53;;;;;;;46.55;30.77;;;;;;;4.46;80.14;101263.05;1583519;88;22896;-88
2022/12/20 08:36:20;;;;;;;44.10;27.90;;;;;;;4.48;80.11;101261.01;1578659;88;21025;-88
2022/12/20 08:38:49;;;;;;;43.48;26.55;;;;;;;4.50;80.04;101255.89;1586700;88;21523;-89
2022/12/20 08:41:16;;;;;;;42.73;26.68;;;;;;;4.52;80.08;101259.48;1584513;88;21554;-88
2022/12/20 08:43:43;;;;;;;50.98;28.87;;;;;;;4.54;80.03;101263.48;1600381;86;21023;-88
2022/12/20 08:46:12;;;;;;;46.08;27.80;;;;;;;4.57;80.04;101267.58;1588189;88;21803;-88
2022/12/20 08:48:39;;;;;;;43.15;26.23;;;;;;;4.56;79.92;101274.89;1629607;85;21008;-88
2022/12/20 08:51:10;;;;;;;49.95;27.75;;;;;;;4.55;79.87;101263.98;1632770;85;21055;-88
2022/12/20 08:53:37;;;;;;;44.80;27.42;;;;;;;4.54;79.85;101275.22;1615687;85;21880;-88
2022/12/20 08:56:14;;;;;;;51.13;28.35;;;;;;;4.48;79.91;101257.09;1611873;85;21058;-88
2022/12/20 08:58:42;;;;;;;46.73;29.52;;;;;;;4.59;79.94;101264.66;1601348;87;22872;-88
2022/12/20 09:01:11;;;;;;;46.18;29.10;;;;;;;4.63;79.83;101258.38;1634819;85;21047;-88
2022/12/20 09:04:12;;;;;;;42.73;29.05;;;;;;;4.65;79.87;101262.01;1601658;88;22297;-88
2022/12/20 09:06:43;;;;;;;45.55;29.07;;;;;;;4.65;79.68;101268.91;1534925;90;21062;-87
2022/12/20 09:09:10;;;;;;;46.65;29.65;;;;;;;4.66;79.71;101264.20;1548571;90;21105;-87
2022/12/20 09:11:37;;;;;;;50.10;31.10;;;;;;;4.66;79.73;101264.20;1580616;88;21797;-87
2022/12/20 09:14:03;;;;;;;49.75;30.97;;;;;;;4.67;79.66;101272.11;1582575;88;21050;-87
2022/12/20 09:16:31;;;;;;;49.27;30.23;;;;;;;4.67;79.64;101268.59;1579653;88;21025;-88
2022/12/20 09:18:59;;;;;;;49.53;32.48;;;;;;;4.69;79.63;101268.27;1591459;88;21090;-87
2022/12/20 09:21:26;;;;;;;56.85;34.05;;;;;;;4.72;79.62;101276.27;1575382;88;21049;-88
2022/12/20 09:23:54;;;;;;;53.25;35.75;;;;;;;4.79;79.68;101261.89;1586728;87;21776;-89
2022/12/20 09:26:21;;;;;;;51.23;34.25;;;;;;;4.83;79.53;101236.05;1586155;88;21034;-87
2022/12/20 09:28:48;;;;;;;49.77;33.85;;;;;;;4.82;79.40;101243.40;1582778;87;20922;-88
2022/12/20 09:31:18;;;;;;;53.38;33.45;;;;;;;4.80;79.34;101255.42;1575614;88;21042;-88
2022/12/20 09:33:44;;;;;;;51.75;33.98;;;;;;;4.83;79.33;101258.22;1578939;88;21095;-88
2022/12/20 09:36:19;;;;;;;53.98;36.70;;;;;;;4.85;79.29;101255.28;1586245;88;22571;-88
2022/12/20 09:38:46;;;;;;;51.42;33.58;;;;;;;4.87;79.29;101250.16;1625278;85;20999;-87
2022/12/20 09:41:33;;;;;;;52.15;33.60;;;;;;;4.91;79.29;101256.45;1677655;83;21027;-88
2022/12/20 09:44:07;;;;;;;44.88;29.27;;;;;;;4.93;79.23;101243.08;1663518;83;21889;-88
2022/12/20 09:46:33;;;;;;;47.03;30.92;;;;;;;4.92;79.15;101254.31;1663662;83;21954;-88
2022/12/20 09:49:00;;;;;;;43.42;28.50;;;;;;;4.93;79.11;101241.78;1669481;83;21771;-87
2022/12/20 09:51:41;;;;;;;42.98;28.07;;;;;;;4.87;78.94;101232.79;1638119;83;21876;-88
2022/12/20 09:54:38;;;;;;;44.77;28.30;;;;;;;4.83;78.98;101236.05;1672346;83;21507;-88
2022/12/20 09:57:40;;;;;;;38.98;27.02;;;;;;;4.81;78.96;101252.44;1646020;84;21046;-87
2022/12/20 10:00:16;;;;;;;47.48;31.27;;;;;;;4.75;78.91;101255.59;1665814;83;21015;-88
2022/12/20 10:02:43;;;;;;;42.03;28.87;;;;;;;4.71;78.98;101253.63;1670732;83;21759;-88
2022/12/20 10:05:21;;;;;;;47.58;30.05;;;;;;;4.69;79.07;101251.31;1662277;83;21080;-88
2022/12/20 10:08:05;;;;;;;45.58;29.45;;;;;;;4.67;79.10;101261.69;1683481;83;21585;-88
2022/12/20 10:10:47;;;;;;;;;;;;;;;4.69;79.16;101272.17;1671821;83;21050;-87
2022/12/20 10:13:37;;;;;;;88.92;45.40;;;;;;;4.70;79.14;101275.29;1585011;84;20188;-88
2022/12/20 10:16:24;;;;;;;117.87;53.70;;;;;;;4.71;79.21;101270.97;1657378;84;21970;-88
2022/12/20 10:18:59;;;;;;;72.85;38.55;;;;;;;4.80;79.30;101264.97;1649699;84;21037;-88
2022/12/20 10:21:52;;;;;;;50.40;32.13;;;;;;;4.83;79.19;101253.41;1664507;83;21385;-87
2022/12/20 10:24:30;;;;;;;65.20;34.75;;;;;;;4.84;79.10;101246.06;1623412;86;21007;-87
2022/12/20 10:27:22;;;;;;;60.98;35.98;;;;;;;4.86;79.07;101246.66;1665409;83;21007;-88
2022/12/20 10:30:04;;;;;;;76.25;42.62;;;;;;;4.87;79.06;101243.64;1659930;84;21918;-87
2022/12/20 10:32:31;;;;;;;61.63;37.13;;;;;;;4.87;79.04;101242.34;1663200;83;21083;-88
2022/12/20 10:35:11;;;;;;;56.58;36.08;;;;;;;4.87;78.98;101241.92;1651468;83;21016;-88
2022/12/20 10:38:11;;;;;;;54.20;34.80;;;;;;;4.84;79.04;101241.77;1630899;85;21033;-88
2022/12/20 10:40:41;;;;;;;59.83;36.48;;;;;;;4.86;79.05;101244.44;1619985;86;21037;-88
2022/12/20 10:43:21;;;;;;;51.97;31.20;;;;;;;4.88;79.09;101241.54;1653804;84;21763;-88
2022/12/20 10:46:02;;;;;;;54.77;32.98;;;;;;;4.91;79.12;101239.49;1640790;84;21056;-88
2022/12/20 10:48:33;;;;;;;52.65;32.58;;;;;;;4.99;79.26;101236.89;1667482;83;21067;-87
2022/12/20 10:51:13;;;;;;;86.63;44.10;;;;;;;5.07;79.17;101231.71;1661390;84;21008;-88
2022/12/20 10:54:02;;;;;;;73.50;41.50;;;;;;;5.11;79.07;101220.62;1660511;83;21034;-88
2022/12/20 10:56:33;;;;;;;68.45;38.05;;;;;;;5.17;79.05;101231.80;1659930;84;21748;-87
2022/12/20 10:59:18;;;;;;;64.75;37.00;;;;;;;5.24;79.03;101228.30;1644981;84;21996;-87
2022/12/20 11:01:45;;;;;;;;;;;;;;;5.34;78.98;101228.80;1669190;83;21015;-88
2022/12/20 11:04:31;;;;;;;90.83;49.35;;;;;;;5.43;78.89;101224.07;1653158;84;20392;-87
2022/12/20 11:07:00;;;;;;;78.95;41.35;;;;;;;5.47;78.76;101223.41;1661615;83;21056;-88
2022/12/20 11:09:35;;;;;;;66.87;39.05;;;;;;;5.50;78.69;101218.36;1638904;83;21903;-88
2022/12/20 11:12:15;;;;;;;93.60;51.18;;;;;;;5.58;78.77;101207.02;1677331;83;21018;-88
2022/12/20 11:14:44;;;;;;;70.67;38.20;;;;;;;5.69;78.77;101207.55;1671455;83;21010;-88
2022/12/20 11:17:28;;;;;;;99.62;55.75;;;;;;;5.73;78.51;101209.53;1667521;83;21027;-88
2022/12/20 11:20:09;;;;;;;80.07;44.63;;;;;;;5.75;78.50;101216.61;1690116;83;21041;-88
2022/12/20 11:22:57;;;;;;;119.75;59.08;;;;;;;5.71;78.19;101208.14;1677282;83;21801;-88
2022/12/20 11:25:52;;;;;;;72.55;40.70;;;;;;;5.70;78.27;101214.58;1667008;83;20985;-88
2022/12/20 11:28:46;;;;;;;70.85;39.98;;;;;;;5.71;78.19;101219.00;1671834;83;21011;-88
2022/12/20 11:31:22;;;;;;;;;;;;;;;5.68;78.07;101210.58;1660442;83;21031;-88
2022/12/20 11:34:19;;;;;;;69.35;38.23;;;;;;;5.64;78.06;101213.85;1666609;83;20673;-88
2022/12/20 11:37:14;;;;;;;87.05;48.73;;;;;;;5.60;77.95;101207.98;1669155;83;22959;-88
2022/12/20 11:40:00;;;;;;;;;;;;;;;5.56;78.02;101204.31;1670299;83;21050;-87
2022/12/20 11:43:08;;;;;;;66.17;37.23;;;;;;;5.53;78.00;101210.67;1672556;83;20154;-88
2022/12/20 11:46:06;;;;;;;57.60;33.88;;;;;;;5.50;78.04;101210.53;1629401;85;21024;-88
2022/12/20 11:48:52;;;;;;;50.48;30.62;;;;;;;5.47;78.10;101216.88;1631506;85;21061;-88
2022/12/20 11:51:46;;;;;;;62.23;35.73;;;;;;;5.49;78.16;101228.72;1633464;85;21827;-88
2022/12/20 11:54:36;;;;;;;54.33;32.40;;;;;;;5.47;78.26;101216.88;1630008;85;20943;-88